Time;durP1;ratioP1;P1;durP2;ratioP2;P2;SDS_P1;SDS_P2;PMS_P1;PMS_P2;Temp;Humidity;BMP_temperature;BMP_pressure;BME280_temperature;BME280_humidity;BME280_pressure;Samples;Min_cycle;Max_cycle;Signal;HPM_P1;HPM_P2
2022/03/20 00:00:30;;;;;;;15.95;9.77;;;7.50;69.60;;;;;;5021382;28;20080;-69
2022/03/20 00:02:56;;;;;;;15.68;9.20;;;7.60;69.50;;;;;;5006194;28;20432;-69
2022/03/20 00:05:22;;;;;;;15.55;9.25;;;7.60;69.70;;;;;;5005961;28;20388;-69
2022/03/20 00:07:48;;;;;;;15.85;9.13;;;7.50;69.80;;;;;;5008600;28;20030;-68
2022/03/20 00:10:15;;;;;;;15.82;9.18;;;7.50;69.90;;;;;;5024048;28;20043;-68
2022/03/20 00:12:41;;;;;;;15.93;8.82;;;7.50;70.10;;;;;;5028176;28;20216;-68
2022/03/20 00:15:08;;;;;;;16.73;8.50;;;7.40;70.00;;;;;;5028254;28;20225;-69
2022/03/20 00:17:34;;;;;;;18.15;9.88;;;7.40;70.10;;;;;;5029752;28;20364;-68
2022/03/20 00:20:01;;;;;;;16.25;8.75;;;7.30;70.00;;;;;;5031359;28;20025;-68
2022/03/20 00:22:27;;;;;;;14.30;8.98;;;7.40;70.10;;;;;;5031272;28;20036;-68
2022/03/20 00:24:53;;;;;;;18.02;9.75;;;7.40;70.10;;;;;;5030104;28;20037;-69
2022/03/20 00:27:19;;;;;;;16.60;9.88;;;7.30;70.30;;;;;;5033094;28;20025;-68
2022/03/20 00:29:45;;;;;;;17.27;8.85;;;7.30;70.40;;;;;;5034779;28;20043;-68
2022/03/20 00:32:12;;;;;;;15.40;8.90;;;7.30;70.30;;;;;;5034563;28;20033;-68
2022/03/20 00:34:39;;;;;;;13.60;8.15;;;7.10;70.50;;;;;;5034578;28;20107;-68
2022/03/20 00:37:06;;;;;;;15.63;9.20;;;7.20;70.40;;;;;;5035069;28;20337;-68
2022/03/20 00:39:33;;;;;;;14.35;9.35;;;7.20;70.60;;;;;;5033523;28;20028;-68
2022/03/20 00:41:58;;;;;;;19.13;10.27;;;7.20;70.40;;;;;;5034244;28;20435;-69
2022/03/20 00:44:24;;;;;;;16.13;9.48;;;7.10;70.60;;;;;;5034789;28;20074;-68
2022/03/20 00:46:50;;;;;;;18.77;9.48;;;6.90;71.10;;;;;;5034565;28;20087;-68
2022/03/20 00:49:16;;;;;;;14.65;9.30;;;6.80;71.40;;;;;;5034484;28;20021;-68
2022/03/20 00:51:43;;;;;;;16.38;9.98;;;6.80;71.50;;;;;;5033973;28;20013;-69
2022/03/20 00:54:10;;;;;;;19.55;10.35;;;6.70;71.60;;;;;;5034360;28;20021;-68
2022/03/20 00:56:37;;;;;;;14.52;8.75;;;6.80;71.40;;;;;;5034517;28;20021;-69
2022/03/20 00:59:03;;;;;;;17.25;9.85;;;6.90;70.90;;;;;;5034030;28;20032;-68
2022/03/20 01:01:29;;;;;;;20.45;10.45;;;7.00;70.90;;;;;;5032531;28;20049;-68
2022/03/20 01:03:56;;;;;;;20.55;9.65;;;6.90;71.00;;;;;;5034257;28;20038;-68
2022/03/20 01:06:25;;;;;;;16.48;9.48;;;6.90;71.10;;;;;;5034189;28;20037;-68
2022/03/20 01:08:52;;;;;;;17.13;9.65;;;7.00;70.50;;;;;;5034021;28;20033;-68
2022/03/20 01:11:19;;;;;;;18.33;10.18;;;7.10;70.40;;;;;;5033586;28;20029;-68
2022/03/20 01:13:45;;;;;;;20.73;9.73;;;7.00;70.90;;;;;;5034024;28;20478;-68
2022/03/20 01:16:10;;;;;;;16.08;9.75;;;7.00;70.80;;;;;;5033690;28;20065;-68
2022/03/20 01:18:37;;;;;;;16.10;9.77;;;6.90;70.90;;;;;;5034317;28;20036;-68
2022/03/20 01:21:03;;;;;;;16.13;10.68;;;7.00;70.60;;;;;;5034049;28;20112;-69
2022/03/20 01:23:29;;;;;;;16.95;10.52;;;7.00;70.80;;;;;;5034166;28;20535;-68
2022/03/20 01:25:54;;;;;;;17.35;10.27;;;6.80;71.00;;;;;;5034320;28;20053;-68
2022/03/20 01:28:23;;;;;;;19.55;10.23;;;6.80;70.90;;;;;;5034360;28;20072;-68
2022/03/20 01:30:49;;;;;;;17.27;9.63;;;6.80;71.00;;;;;;5032813;28;20103;-69
2022/03/20 01:33:16;;;;;;;19.67;11.52;;;6.90;70.70;;;;;;5033844;28;20120;-68
2022/03/20 01:35:41;;;;;;;16.48;10.32;;;6.70;70.90;;;;;;5033431;28;20124;-68
2022/03/20 01:38:07;;;;;;;19.55;10.95;;;6.50;71.50;;;;;;5033014;28;20555;-68
2022/03/20 01:40:34;;;;;;;17.50;10.32;;;6.50;71.80;;;;;;5033798;28;20061;-68
2022/03/20 01:43:00;;;;;;;18.80;11.07;;;6.70;70.90;;;;;;5033168;28;20037;-68
2022/03/20 01:45:27;;;;;;;21.35;11.02;;;6.70;71.00;;;;;;5033689;28;20451;-68
2022/03/20 01:47:53;;;;;;;17.67;10.27;;;6.60;71.70;;;;;;5033533;28;20033;-68
2022/03/20 01:50:24;;;;;;;15.52;11.02;;;6.40;71.80;;;;;;5032575;28;20041;-68
2022/03/20 01:52:51;;;;;;;18.17;10.45;;;6.40;71.60;;;;;;5032978;28;20025;-68
2022/03/20 01:55:19;;;;;;;18.58;10.63;;;6.40;72.00;;;;;;5033238;28;20072;-69
2022/03/20 01:57:44;;;;;;;19.27;11.23;;;6.60;71.40;;;;;;5033321;28;20026;-68
2022/03/20 02:00:13;;;;;;;21.33;10.52;;;6.20;72.10;;;;;;5032704;28;20109;-68
2022/03/20 02:02:39;;;;;;;18.30;10.43;;;6.10;72.50;;;;;;5032820;28;20098;-69
2022/03/20 02:05:09;;;;;;;19.30;11.15;;;6.00;72.30;;;;;;5033154;28;20117;-69
2022/03/20 02:07:36;;;;;;;18.48;10.63;;;6.10;72.30;;;;;;5033345;28;20030;-68
2022/03/20 02:10:03;;;;;;;21.50;11.02;;;6.20;72.30;;;;;;5033041;28;20033;-68
2022/03/20 02:12:30;;;;;;;16.35;10.75;;;6.30;72.30;;;;;;5033061;28;20030;-68
2022/03/20 02:14:58;;;;;;;18.15;10.55;;;6.30;72.10;;;;;;5032264;28;20498;-68
2022/03/20 02:17:29;;;;;;;21.35;11.45;;;6.10;72.30;;;;;;5032410;28;20034;-68
2022/03/20 02:19:59;;;;;;;19.88;10.88;;;6.10;72.30;;;;;;5032684;28;20036;-68
2022/03/20 02:22:25;;;;;;;18.60;11.23;;;6.10;72.30;;;;;;5032277;28;20025;-68
2022/03/20 02:24:52;;;;;;;17.70;11.07;;;6.40;72.00;;;;;;5032635;28;20029;-68
2022/03/20 02:27:27;;;;;;;19.30;10.85;;;6.20;72.10;;;;;;5032576;28;20100;-69
2022/03/20 02:29:58;;;;;;;22.13;12.95;;;6.30;71.90;;;;;;5032672;28;20032;-68
2022/03/20 02:32:29;;;;;;;16.40;10.07;;;6.10;72.40;;;;;;5031726;28;20039;-69
2022/03/20 02:35:03;;;;;;;18.08;10.32;;;5.90;72.80;;;;;;5032368;28;20041;-68
2022/03/20 02:37:29;;;;;;;;;;;6.10;72.20;;;;;;5033222;28;20026;-69
2022/03/20 02:39:57;;;;;;;20.50;10.80;;;6.10;72.30;;;;;;5032099;28;19909;-68
2022/03/20 02:42:24;;;;;;;18.92;10.60;;;6.10;72.40;;;;;;5032213;28;20025;-69
2022/03/20 02:45:03;;;;;;;20.23;11.05;;;6.20;72.20;;;;;;5031940;28;20025;-68
2022/03/20 02:47:30;;;;;;;18.90;11.65;;;6.40;71.50;;;;;;5032290;28;20018;-68
2022/03/20 02:50:33;;;;;;;23.52;11.20;;;6.10;72.10;;;;;;5031714;28;20052;-69
2022/03/20 02:53:02;;;;;;;15.73;9.63;;;5.90;72.60;;;;;;5027469;28;20046;-68
2022/03/20 02:55:36;;;;;;;18.52;10.95;;;5.70;73.20;;;;;;5032103;28;20415;-68
2022/03/20 02:58:04;;;;;;;19.92;11.30;;;5.70;73.30;;;;;;5032324;28;20030;-68
2022/03/20 03:00:32;;;;;;;22.90;13.45;;;5.70;73.30;;;;;;5030851;28;20037;-68
2022/03/20 03:02:59;;;;;;;17.73;10.68;;;5.60;73.40;;;;;;5031913;28;20124;-69
2022/03/20 03:05:26;;;;;;;18.98;10.90;;;5.40;74.10;;;;;;5031818;28;20391;-68
2022/03/20 03:10:57;;;;;;;20.48;11.45;;;5.90;72.60;;;;;;5031064;28;20506;-68
2022/03/20 03:13:24;;;;;;;21.40;11.45;;;5.50;73.60;;;;;;5026439;28;20038;-68
2022/03/20 03:15:56;;;;;;;17.33;11.18;;;5.40;74.10;;;;;;5031913;28;20509;-68
2022/03/20 03:18:23;;;;;;;22.75;12.77;;;5.30;74.30;;;;;;5032095;28;20036;-68
2022/03/20 03:20:49;;;;;;;17.08;11.50;;;5.50;73.70;;;;;;5031935;28;20061;-68
2022/03/20 03:23:16;;;;;;;19.77;11.18;;;5.50;73.60;;;;;;5031885;28;20032;-68
2022/03/20 03:25:41;;;;;;;22.73;12.15;;;5.60;73.40;;;;;;5031749;28;20026;-68
2022/03/20 03:28:09;;;;;;;20.45;10.45;;;5.30;74.00;;;;;;5031153;28;20049;-68
2022/03/20 03:30:36;;;;;;;18.08;10.75;;;5.10;74.80;;;;;;5032072;28;20456;-68
2022/03/20 03:33:01;;;;;;;20.00;10.88;;;5.10;74.80;;;;;;5031578;28;20037;-68
2022/03/20 03:35:42;;;;;;;17.50;10.30;;;5.10;74.50;;;;;;5031628;28;20060;-68
2022/03/20 03:38:12;;;;;;;23.17;12.15;;;5.20;74.30;;;;;;5030907;28;20498;-68
2022/03/20 03:40:39;;;;;;;18.98;11.50;;;5.00;74.70;;;;;;5031310;28;20036;-68
2022/03/20 03:43:05;;;;;;;21.70;12.50;;;4.90;74.80;;;;;;5031201;28;20472;-68
2022/03/20 03:45:31;;;;;;;22.75;10.75;;;5.00;74.80;;;;;;5031444;28;20029;-68
2022/03/20 03:47:56;;;;;;;20.77;11.45;;;4.90;74.90;;;;;;5031558;28;20048;-68
2022/03/20 03:50:23;;;;;;;19.55;11.45;;;4.80;75.00;;;;;;5031480;28;20468;-68
2022/03/20 03:52:49;;;;;;;20.63;10.63;;;4.90;74.90;;;;;;5030321;28;20475;-68
2022/03/20 03:55:15;;;;;;;19.13;11.00;;;4.90;74.90;;;;;;5030741;28;20040;-68
2022/03/20 03:57:45;;;;;;;21.45;11.82;;;4.90;74.90;;;;;;5031361;28;20056;-69
2022/03/20 04:00:11;;;;;;;18.83;12.05;;;4.90;75.00;;;;;;5031072;28;20522;-70
2022/03/20 04:02:37;;;;;;;24.60;11.93;;;4.90;74.50;;;;;;5031876;28;20079;-70
2022/03/20 04:05:03;;;;;;;23.65;12.65;;;4.90;74.80;;;;;;5013986;28;20468;-70
2022/03/20 04:07:29;;;;;;;19.45;10.98;;;4.90;74.80;;;;;;5030966;28;20037;-70
2022/03/20 04:09:54;;;;;;;20.10;10.68;;;4.80;75.20;;;;;;5030369;28;20036;-70
2022/03/20 04:12:20;;;;;;;21.20;12.02;;;4.70;75.20;;;;;;5030668;28;20120;-70
2022/03/20 04:14:46;;;;;;;17.92;10.43;;;4.60;75.50;;;;;;5030377;28;20411;-70
2022/03/20 04:17:12;;;;;;;20.45;12.05;;;4.80;75.20;;;;;;5027041;28;20021;-70
2022/03/20 04:19:38;;;;;;;24.83;13.13;;;4.80;75.10;;;;;;5027688;28;20033;-70
2022/03/20 04:22:04;;;;;;;26.52;12.48;;;5.00;74.70;;;;;;5027729;28;20025;-70
2022/03/20 04:24:30;;;;;;;20.58;10.82;;;4.80;74.90;;;;;;5030500;28;20112;-70
2022/03/20 04:26:58;;;;;;;17.55;12.00;;;4.60;75.50;;;;;;5030221;28;20443;-70
2022/03/20 04:29:25;;;;;;;19.30;11.88;;;4.80;75.30;;;;;;5030704;28;20135;-70
2022/03/20 04:31:54;;;;;;;21.20;11.68;;;4.70;75.50;;;;;;5030976;28;20029;-70
2022/03/20 04:34:26;;;;;;;24.23;11.38;;;4.70;75.20;;;;;;5030316;28;20029;-70
2022/03/20 04:36:53;;;;;;;20.75;11.90;;;4.60;75.30;;;;;;5030505;28;20528;-70
2022/03/20 04:39:19;;;;;;;19.85;11.75;;;4.70;75.40;;;;;;5030204;28;20384;-70
2022/03/20 04:41:46;;;;;;;20.58;10.98;;;4.50;75.70;;;;;;5030003;28;20026;-70
2022/03/20 04:44:12;;;;;;;20.67;12.20;;;4.50;75.80;;;;;;5030447;28;20045;-70
2022/03/20 04:46:41;;;;;;;22.67;12.50;;;4.50;75.80;;;;;;5030323;28;20037;-70
2022/03/20 05:00:06;;;;;;;21.30;11.48;;;4.80;75.60;;;;;;5010128;28;20065;-70
2022/03/20 05:02:31;;;;;;;21.45;11.65;;;4.60;75.90;;;;;;5010187;28;20528;-70
2022/03/20 05:04:57;;;;;;;18.02;11.43;;;4.70;76.30;;;;;;5011989;28;20060;-70
2022/03/20 05:07:23;;;;;;;21.45;11.70;;;4.60;75.90;;;;;;5027090;28;20037;-70
2022/03/20 05:15:16;;;;;;;20.63;11.80;;;4.50;76.30;;;;;;5029458;28;20045;-70
2022/03/20 05:17:42;;;;;;;22.23;11.55;;;4.60;76.20;;;;;;5029457;28;20025;-70
2022/03/20 05:20:08;;;;;;;18.20;11.43;;;4.60;76.40;;;;;;5029507;28;20033;-70
2022/03/20 05:22:38;;;;;;;21.13;11.25;;;4.50;76.30;;;;;;5029606;28;20442;-70
2022/03/20 05:25:09;;;;;;;18.77;11.25;;;4.40;77.00;;;;;;5029636;28;20029;-70
2022/03/20 05:27:35;;;;;;;18.90;11.18;;;4.30;77.20;;;;;;5029293;28;20032;-70
2022/03/20 05:30:03;;;;;;;22.02;12.48;;;4.50;76.40;;;;;;5029481;28;20021;-70
2022/03/20 05:32:28;;;;;;;22.05;11.32;;;4.50;76.60;;;;;;5027936;28;20446;-70
2022/03/20 05:34:54;;;;;;;18.55;11.02;;;4.50;76.60;;;;;;5027917;28;20057;-70
2022/03/20 05:37:19;;;;;;;20.98;11.85;;;4.60;76.30;;;;;;5029165;28;20095;-70
2022/03/20 05:39:46;;;;;;;19.13;12.30;;;4.60;76.40;;;;;;5029394;28;20033;-70
2022/03/20 05:42:14;;;;;;;18.85;11.07;;;4.70;76.40;;;;;;5028424;28;20073;-70
2022/03/20 05:44:40;;;;;;;19.88;10.73;;;4.70;76.60;;;;;;5029226;28;20494;-70
2022/03/20 05:47:07;;;;;;;20.10;11.27;;;4.70;76.80;;;;;;5029296;28;20033;-70
2022/03/20 05:49:33;;;;;;;18.35;10.50;;;4.70;76.90;;;;;;5028836;28;20043;-70
2022/03/20 05:52:00;;;;;;;18.88;10.75;;;4.60;77.40;;;;;;5026138;28;20043;-70
2022/03/20 05:54:25;;;;;;;18.63;11.73;;;4.50;77.70;;;;;;5025759;28;21000;-70
2022/03/20 05:59:36;;;;;;;21.63;11.18;;;4.30;79.40;;;;;;5025852;28;20079;-70
2022/03/20 06:02:02;;;;;;;19.73;12.27;;;4.20;79.40;;;;;;5025513;28;20628;-70
2022/03/20 06:04:28;;;;;;;18.90;11.18;;;4.30;78.00;;;;;;5025106;28;20147;-70
2022/03/20 06:06:54;;;;;;;18.77;11.15;;;4.40;78.10;;;;;;5025364;28;20472;-70
2022/03/20 06:09:20;;;;;;;19.38;10.98;;;4.30;78.90;;;;;;5025875;28;20033;-70
2022/03/20 06:11:45;;;;;;;23.67;11.80;;;4.20;79.00;;;;;;5025395;28;20028;-70
2022/03/20 06:14:11;;;;;;;22.35;10.45;;;4.00;79.00;;;;;;5025271;28;20033;-70
2022/03/20 06:16:37;;;;;;;20.77;11.35;;;3.90;79.40;;;;;;5025239;28;20041;-70
2022/03/20 06:19:07;;;;;;;21.70;12.30;;;3.90;79.50;;;;;;5024906;28;20025;-70
2022/03/20 06:21:34;;;;;;;18.17;11.35;;;3.90;80.40;;;;;;5025141;28;20198;-70
2022/03/20 06:23:59;;;;;;;16.23;10.70;;;4.00;79.20;;;;;;5024006;28;20052;-70
2022/03/20 06:26:25;;;;;;;21.33;11.13;;;4.20;79.50;;;;;;5024835;28;20026;-70
2022/03/20 06:28:52;;;;;;;19.58;10.70;;;4.20;79.80;;;;;;5025278;28;20142;-70
2022/03/20 06:31:22;;;;;;;20.90;11.07;;;4.20;79.30;;;;;;5024695;28;20482;-70
2022/03/20 06:33:48;;;;;;;17.15;10.73;;;4.40;78.70;;;;;;5024611;28;20025;-70
2022/03/20 06:36:14;;;;;;;20.05;10.23;;;4.40;81.40;;;;;;5025466;28;20153;-70
2022/03/20 06:38:40;;;;;;;18.83;11.15;;;4.30;80.30;;;;;;5024983;28;20128;-69
2022/03/20 06:41:07;;;;;;;15.95;9.77;;;4.20;80.80;;;;;;5025355;28;20025;-69
2022/03/20 06:43:35;;;;;;;17.65;11.02;;;4.10;80.50;;;;;;5024973;28;20021;-69
2022/03/20 06:46:02;;;;;;;14.73;9.23;;;4.10;80.40;;;;;;5024628;28;20021;-69
2022/03/20 06:48:28;;;;;;;17.23;11.10;;;4.30;80.00;;;;;;5025110;28;20034;-69
2022/03/20 06:50:54;;;;;;;19.73;10.57;;;4.20;79.50;;;;;;5024202;28;20041;-69
2022/03/20 06:53:20;;;;;;;18.73;10.32;;;4.50;79.10;;;;;;5024729;28;20044;-69
2022/03/20 06:55:46;;;;;;;18.38;10.75;;;4.60;78.60;;;;;;5024488;28;20042;-69
2022/03/20 06:58:13;;;;;;;20.27;10.60;;;4.60;79.30;;;;;;5024730;28;20029;-69
2022/03/20 07:00:40;;;;;;;17.85;10.43;;;4.80;79.10;;;;;;5023802;28;20510;-69
2022/03/20 07:03:07;;;;;;;23.05;10.80;;;4.70;79.40;;;;;;5024608;28;20593;-69
2022/03/20 07:05:33;;;;;;;17.88;11.18;;;4.80;79.40;;;;;;5023962;28;20069;-69
2022/03/20 07:08:04;;;;;;;20.80;11.43;;;4.80;79.70;;;;;;5025263;28;20111;-69
2022/03/20 07:10:30;;;;;;;18.13;10.80;;;4.70;79.10;;;;;;5024855;28;20041;-69
2022/03/20 07:15:41;;;;;;;21.63;12.32;;;4.90;79.00;;;;;;5024351;28;20206;-69
2022/03/20 07:18:11;;;;;;;20.33;10.45;;;4.90;79.80;;;;;;5024051;28;20103;-69
2022/03/20 07:20:42;;;;;;;20.10;11.05;;;5.00;80.10;;;;;;5024304;28;20541;-69
2022/03/20 07:23:11;;;;;;;20.23;11.52;;;5.10;77.80;;;;;;5024245;28;20023;-69
2022/03/20 07:31:07;;;;;;;18.15;11.18;;;5.40;78.50;;;;;;5024533;28;20521;-69
2022/03/20 07:33:33;;;;;;;20.75;11.07;;;5.50;78.00;;;;;;5023824;28;20029;-69
2022/03/20 07:35:59;;;;;;;19.95;11.25;;;5.60;77.30;;;;;;5023566;28;20078;-69
2022/03/20 07:38:26;;;;;;;20.17;10.52;;;5.50;77.90;;;;;;5024097;28;20461;-69
2022/03/20 07:40:52;;;;;;;21.92;12.10;;;5.70;78.20;;;;;;5023758;28;20100;-69
2022/03/20 07:43:18;;;;;;;18.48;11.05;;;5.70;77.90;;;;;;5023629;28;20128;-69
2022/03/20 07:45:44;;;;;;;17.17;11.07;;;5.70;78.90;;;;;;5024094;28;20108;-69
2022/03/20 07:48:10;;;;;;;18.92;11.05;;;5.60;78.40;;;;;;5021879;28;20037;-69
2022/03/20 07:50:36;;;;;;;19.40;11.93;;;5.60;78.00;;;;;;5022644;28;20030;-69
2022/03/20 07:53:02;;;;;;;19.27;11.77;;;5.70;77.80;;;;;;5023875;28;20049;-69
2022/03/20 07:55:28;;;;;;;22.45;11.70;;;5.70;77.10;;;;;;5023619;28;20041;-69
2022/03/20 07:57:55;;;;;;;20.27;11.70;;;5.80;77.50;;;;;;5023874;28;20225;-69
2022/03/20 08:00:22;;;;;;;20.75;11.48;;;5.80;76.70;;;;;;5023847;28;20032;-69
2022/03/20 08:02:48;;;;;;;18.70;11.60;;;5.90;76.70;;;;;;5023461;28;20446;-69
2022/03/20 08:05:14;;;;;;;21.27;12.30;;;6.00;77.10;;;;;;5026690;28;20021;-69
2022/03/20 08:07:40;;;;;;;22.70;13.40;;;6.20;76.80;;;;;;5027069;28;20035;-69
2022/03/20 08:10:11;;;;;;;21.23;12.02;;;6.20;76.30;;;;;;5026837;28;20025;-69
2022/03/20 08:12:38;;;;;;;22.55;14.75;;;6.30;76.00;;;;;;5026850;28;20029;-69
2022/03/20 08:15:05;;;;;;;22.00;12.85;;;6.40;75.70;;;;;;5026778;28;20112;-69
2022/03/20 08:17:31;;;;;;;18.80;11.77;;;6.40;75.20;;;;;;5026124;28;20038;-69
2022/03/20 08:19:57;;;;;;;24.30;14.00;;;6.40;74.40;;;;;;5026956;28;20029;-69
2022/03/20 08:22:27;;;;;;;21.98;16.45;;;6.50;74.60;;;;;;5026516;28;20041;-69
2022/03/20 08:24:53;;;;;;;23.95;13.93;;;6.50;74.60;;;;;;5007295;28;20033;-69
2022/03/20 08:27:20;;;;;;;21.65;11.85;;;6.60;75.00;;;;;;5007123;28;20026;-69
2022/03/20 08:29:46;;;;;;;20.73;12.38;;;6.70;75.80;;;;;;5016889;28;20033;-69
2022/03/20 08:32:11;;;;;;;19.63;11.77;;;6.70;75.70;;;;;;5026338;28;20510;-69
2022/03/20 08:34:37;;;;;;;18.33;11.30;;;6.60;74.90;;;;;;5025909;28;20107;-69
2022/03/20 08:37:03;;;;;;;20.67;11.85;;;6.60;74.50;;;;;;5027031;28;20053;-69
2022/03/20 08:39:29;;;;;;;18.13;11.45;;;6.70;74.30;;;;;;5026945;28;20389;-69
2022/03/20 08:41:54;;;;;;;21.55;12.10;;;6.80;74.50;;;;;;5026803;28;20392;-69
2022/03/20 08:44:20;;;;;;;23.27;13.23;;;6.90;74.30;;;;;;5027044;28;20371;-69
2022/03/20 08:46:45;;;;;;;18.90;12.30;;;6.80;74.20;;;;;;5026621;28;20487;-69
2022/03/20 08:49:11;;;;;;;21.02;12.00;;;6.90;74.50;;;;;;5028664;28;20474;-69
2022/03/20 08:51:41;;;;;;;19.08;12.02;;;7.10;74.50;;;;;;5030171;28;20037;-69
2022/03/20 08:54:07;;;;;;;22.05;12.38;;;7.10;74.20;;;;;;5030122;28;20025;-69
2022/03/20 08:56:33;;;;;;;19.98;11.45;;;7.20;74.60;;;;;;5030058;28;20045;-69
2022/03/20 08:58:59;;;;;;;21.40;13.73;;;7.30;74.30;;;;;;5029898;28;20101;-69
2022/03/20 09:01:25;;;;;;;20.38;11.40;;;7.50;75.20;;;;;;5027901;28;20383;-69
2022/03/20 09:03:52;;;;;;;21.83;13.68;;;7.70;76.10;;;;;;5029190;28;20033;-69
2022/03/20 09:06:21;;;;;;;20.23;12.32;;;7.70;73.70;;;;;;5028462;28;20505;-69
2022/03/20 09:08:49;;;;;;;22.17;14.18;;;7.60;72.90;;;;;;5030095;28;20083;-69
2022/03/20 09:11:16;;;;;;;21.05;13.88;;;7.80;73.80;;;;;;5029812;28;20057;-69
2022/03/20 09:13:41;;;;;;;20.25;12.13;;;7.90;73.30;;;;;;5028065;28;20037;-69
2022/03/20 09:19:00;;;;;;;25.15;17.23;;;7.80;73.70;;;;;;5030146;28;20121;-69
2022/03/20 09:21:27;;;;;;;20.52;12.60;;;8.00;73.20;;;;;;5029749;28;20029;-69
2022/03/20 09:23:53;;;;;;;22.60;14.63;;;8.20;72.90;;;;;;5029020;28;20033;-69
2022/03/20 09:26:19;;;;;;;19.35;12.10;;;8.20;72.70;;;;;;5029644;28;20025;-69
2022/03/20 09:28:46;;;;;;;18.80;11.63;;;8.50;73.00;;;;;;5028948;28;20039;-69
2022/03/20 09:31:13;;;;;;;26.77;13.07;;;10.50;70.20;;;;;;5029493;28;20028;-69
2022/03/20 09:33:39;;;;;;;19.83;12.00;;;10.50;68.60;;;;;;5028875;28;20097;-69
2022/03/20 09:36:06;;;;;;;21.23;12.85;;;10.00;68.30;;;;;;5029435;28;20029;-69
2022/03/20 09:38:32;;;;;;;18.65;12.13;;;9.80;69.30;;;;;;5029207;28;20026;-69
2022/03/20 09:41:03;;;;;;;18.85;12.63;;;10.10;70.00;;;;;;5029086;28;20026;-69
2022/03/20 09:43:31;;;;;;;21.55;13.43;;;10.00;69.20;;;;;;5029392;28;20040;-69
2022/03/20 09:45:57;;;;;;;18.13;12.82;;;10.00;69.60;;;;;;5029230;28;20075;-69
2022/03/20 09:48:22;;;;;;;18.88;11.57;;;10.20;70.40;;;;;;5028239;28;20109;-69
2022/03/20 09:50:49;;;;;;;19.58;12.13;;;10.30;70.00;;;;;;5029067;28;20033;-69
2022/03/20 09:53:15;;;;;;;20.30;11.40;;;10.10;69.00;;;;;;5028806;28;20040;-69
2022/03/20 09:55:42;;;;;;;18.73;12.55;;;10.00;68.40;;;;;;5028898;28;20025;-70
2022/03/20 09:58:08;;;;;;;18.23;11.65;;;10.00;69.10;;;;;;5029566;28;20325;-69
2022/03/20 10:00:34;;;;;;;28.13;12.43;;;9.90;68.60;;;;;;5027216;28;20041;-69
2022/03/20 10:03:17;;;;;;;19.08;12.48;;;10.00;68.40;;;;;;5028107;28;20545;-69
2022/03/20 10:05:43;;;;;;;29.48;12.52;;;10.10;68.60;;;;;;5028958;28;20022;-69
2022/03/20 10:08:10;;;;;;;20.23;11.30;;;10.30;68.00;;;;;;5028784;28;20087;-69
2022/03/20 10:10:36;;;;;;;17.05;9.98;;;10.20;68.40;;;;;;5028669;28;20379;-69
2022/03/20 10:13:13;;;;;;;20.77;12.18;;;10.30;68.10;;;;;;5026545;28;20029;-69
2022/03/20 10:15:42;;;;;;;27.38;13.50;;;10.10;68.30;;;;;;5028380;28;20452;-69
2022/03/20 10:18:20;;;;;;;19.67;11.85;;;10.40;69.30;;;;;;5028612;28;20017;-69
2022/03/20 10:20:52;;;;;;;18.17;11.25;;;10.50;67.50;;;;;;5027377;28;20438;-69
2022/03/20 10:23:39;;;;;;;17.10;11.63;;;10.40;66.80;;;;;;5028393;28;20112;-69
2022/03/20 10:26:07;;;;;;;19.77;11.88;;;10.40;67.70;;;;;;5028306;28;20061;-69
2022/03/20 10:28:41;;;;;;;23.58;12.63;;;10.50;67.10;;;;;;5028307;28;20037;-69
2022/03/20 10:31:09;;;;;;;19.58;11.63;;;10.40;67.10;;;;;;5028328;28;20481;-69
2022/03/20 10:33:40;;;;;;;19.42;12.02;;;10.60;68.00;;;;;;5027993;28;20021;-69
2022/03/20 10:36:19;;;;;;;17.75;11.32;;;10.80;68.40;;;;;;5027784;28;20047;-69
2022/03/20 10:38:48;;;;;;;18.75;11.68;;;11.10;66.70;;;;;;5028046;28;20103;-69
2022/03/20 10:41:25;;;;;;;19.33;12.20;;;11.20;66.50;;;;;;5028196;28;20033;-69
2022/03/20 10:43:52;;;;;;;18.80;12.50;;;11.30;68.60;;;;;;5028043;28;20128;-69
2022/03/20 10:46:21;;;;;;;16.38;11.02;;;11.20;66.80;;;;;;5028204;28;20220;-69
2022/03/20 10:48:50;;;;;;;20.42;11.95;;;11.30;67.10;;;;;;5028146;28;20491;-69
2022/03/20 10:51:41;;;;;;;18.08;10.82;;;11.40;67.20;;;;;;5027767;28;20040;-69
2022/03/20 10:54:12;;;;;;;19.23;11.88;;;11.50;68.00;;;;;;5026889;28;20048;-69
2022/03/20 10:56:58;;;;;;;32.53;12.07;;;11.60;67.20;;;;;;5027408;28;20029;-69
2022/03/20 10:59:26;;;;;;;23.00;12.85;;;11.50;66.50;;;;;;5027752;28;20487;-69
2022/03/20 11:01:52;;;;;;;21.25;11.82;;;11.50;65.40;;;;;;5026310;28;20045;-69
2022/03/20 11:04:19;;;;;;;24.42;13.32;;;11.50;65.90;;;;;;5027389;28;20092;-70
2022/03/20 11:06:50;;;;;;;16.55;10.63;;;11.60;67.00;;;;;;5025643;28;20022;-69
2022/03/20 11:09:16;;;;;;;21.17;12.13;;;11.60;65.60;;;;;;5027710;28;20025;-69
2022/03/20 11:11:45;;;;;;;17.58;10.93;;;11.60;65.40;;;;;;5027696;28;20084;-69
2022/03/20 11:14:20;;;;;;;19.75;12.30;;;12.00;66.90;;;;;;5027592;28;20121;-69
2022/03/20 11:16:51;;;;;;;19.98;11.88;;;12.20;65.00;;;;;;5027676;28;20057;-69
2022/03/20 11:19:23;;;;;;;18.98;10.93;;;12.10;65.80;;;;;;5027844;28;20032;-69
2022/03/20 11:21:53;;;;;;;19.42;11.80;;;12.20;66.70;;;;;;5026414;28;20056;-69
2022/03/20 11:24:19;;;;;;;21.95;12.07;;;12.50;65.60;;;;;;5025918;28;20150;-70
2022/03/20 11:26:49;;;;;;;18.48;11.30;;;12.30;65.10;;;;;;5027430;28;20232;-69
2022/03/20 11:29:17;;;;;;;17.92;12.35;;;12.30;65.30;;;;;;5027263;28;20025;-69
2022/03/20 11:31:44;;;;;;;19.15;10.95;;;12.50;65.30;;;;;;5027148;28;20034;-69
2022/03/20 11:34:12;;;;;;;17.75;11.30;;;12.60;65.20;;;;;;5027383;28;20033;-69
2022/03/20 11:36:59;;;;;;;17.85;12.45;;;12.90;65.00;;;;;;5025686;28;20063;-70
2022/03/20 11:39:24;;;;;;;18.55;10.95;;;13.00;64.30;;;;;;5027311;28;21230;-70
2022/03/20 11:42:20;;;;;;;17.98;10.90;;;13.20;64.70;;;;;;5027091;28;20092;-69
2022/03/20 11:44:58;;;;;;;18.42;11.15;;;13.10;63.60;;;;;;5026938;28;20025;-70
2022/03/20 11:47:29;;;;;;;20.67;12.05;;;13.00;63.40;;;;;;5027079;28;20025;-69
2022/03/20 11:50:39;;;;;;;15.10;10.25;;;12.70;62.80;;;;;;5026987;28;20514;-70
2022/03/20 11:53:05;;;;;;;18.95;10.95;;;12.70;63.10;;;;;;5027525;28;20025;-69
2022/03/20 11:55:38;;;;;;;19.30;11.88;;;12.20;63.60;;;;;;5026809;28;20045;-68
2022/03/20 11:58:21;;;;;;;20.17;12.15;;;12.40;64.70;;;;;;5027141;28;20411;-68
2022/03/20 12:01:03;;;;;;;28.65;11.85;;;13.00;64.10;;;;;;5026835;28;20128;-69
2022/03/20 12:03:50;;;;;;;20.08;11.90;;;13.20;63.50;;;;;;5026881;28;20033;-69
2022/03/20 12:06:18;;;;;;;52.13;12.35;;;13.50;64.10;;;;;;5027048;28;20150;-69
2022/03/20 12:08:56;;;;;;;21.08;11.50;;;13.50;62.70;;;;;;5026813;28;20037;-69
2022/03/20 12:11:47;;;;;;;21.50;10.90;;;13.50;62.50;;;;;;5026418;28;20033;-69
2022/03/20 12:14:31;;;;;;;15.07;10.30;;;13.60;63.10;;;;;;5026372;28;20099;-69
2022/03/20 12:16:59;;;;;;;14.82;9.50;;;13.60;62.20;;;;;;5026687;28;20900;-69
2022/03/20 12:19:44;;;;;;;15.48;10.60;;;13.50;61.90;;;;;;5026944;28;20057;-69
2022/03/20 12:22:30;;;;;;;18.65;10.40;;;13.60;62.10;;;;;;5026766;28;20037;-68
2022/03/20 12:25:02;;;;;;;16.98;11.30;;;13.70;62.90;;;;;;5030731;28;20179;-69
2022/03/20 12:27:29;;;;;;;16.42;10.60;;;13.90;62.20;;;;;;5030767;28;20345;-69
2022/03/20 12:30:14;;;;;;;17.27;11.00;;;13.70;62.10;;;;;;5030225;28;20029;-69
2022/03/20 12:32:49;;;;;;;17.10;10.85;;;13.70;61.50;;;;;;5030858;28;20037;-69
2022/03/20 12:35:23;;;;;;;13.85;9.80;;;13.60;61.60;;;;;;5030425;28;20446;-69
2022/03/20 12:37:52;;;;;;;16.90;11.13;;;13.30;61.80;;;;;;5030549;28;20037;-69
2022/03/20 12:40:29;;;;;;;17.48;10.48;;;13.50;62.70;;;;;;5029879;28;20352;-70
2022/03/20 12:43:10;;;;;;;18.55;11.98;;;13.60;62.90;;;;;;5030656;28;20542;-69
2022/03/20 12:45:41;;;;;;;18.75;11.38;;;13.70;63.10;;;;;;5029877;28;20474;-69
2022/03/20 12:48:10;;;;;;;17.75;11.95;;;13.50;62.90;;;;;;5030301;28;20041;-69
2022/03/20 12:50:40;;;;;;;17.63;11.07;;;13.50;62.80;;;;;;5030259;28;20036;-69
2022/03/20 12:53:11;;;;;;;16.42;10.57;;;13.50;63.10;;;;;;5030467;28;20029;-69
2022/03/20 12:55:38;;;;;;;19.45;11.13;;;13.50;63.10;;;;;;5030432;28;20411;-69
2022/03/20 12:58:08;;;;;;;17.42;11.32;;;13.40;63.50;;;;;;5030117;28;20036;-69
2022/03/20 13:00:36;;;;;;;20.33;12.38;;;13.40;63.20;;;;;;5029867;28;20151;-69
2022/03/20 13:03:07;;;;;;;17.10;12.10;;;13.50;63.20;;;;;;5029861;28;20122;-69
2022/03/20 13:05:40;;;;;;;18.50;10.80;;;13.60;64.00;;;;;;5029885;28;20021;-69
2022/03/20 13:08:07;;;;;;;17.30;11.75;;;13.70;63.80;;;;;;5030028;28;20060;-69
2022/03/20 13:10:38;;;;;;;18.25;12.10;;;13.70;63.90;;;;;;5030106;28;20068;-69
2022/03/20 13:13:05;;;;;;;24.92;12.07;;;13.60;63.30;;;;;;5029751;28;20095;-69
2022/03/20 13:15:37;;;;;;;19.00;11.68;;;13.30;63.60;;;;;;5029697;28;20037;-69